createdAt,value
2023-03-12T00:00:33.860Z,96626.63
2023-03-12T00:03:03.805Z,96629.06
2023-03-12T00:05:33.841Z,96636.16
2023-03-12T00:08:03.762Z,96652.23
2023-03-12T00:10:33.607Z,96660.97
2023-03-12T00:13:03.467Z,96664.80
2023-03-12T00:15:33.390Z,96683.36
2023-03-12T00:18:03.386Z,96676.79
2023-03-12T00:20:33.276Z,96688.54
2023-03-12T00:23:03.181Z,96673.25
2023-03-12T00:25:33.111Z,96686.08
2023-03-12T00:28:03.042Z,96680.41
2023-03-12T00:30:32.936Z,96699.98
2023-03-12T00:33:02.894Z,96695.06
2023-03-12T00:35:33.402Z,96705.17
2023-03-12T00:38:03.374Z,96697.80
2023-03-12T00:40:33.246Z,96700.52
2023-03-12T00:43:03.084Z,96714.47
2023-03-12T00:45:33.075Z,96714.72
2023-03-12T00:48:07.305Z,96723.97
2023-03-12T00:50:37.487Z,96736.80
2023-03-12T00:53:07.674Z,96740.08
2023-03-12T00:55:37.553Z,96732.25
2023-03-12T00:58:07.393Z,96732.25
2023-03-12T01:00:37.386Z,96761.66
2023-03-12T01:03:41.256Z,96756.45
2023-03-12T01:06:11.144Z,96770.09
2023-03-12T01:08:41.160Z,96780.45
2023-03-12T01:11:14.706Z,96773.65
2023-03-12T01:13:44.573Z,96784.56
2023-03-12T01:16:14.650Z,96797.95
2023-03-12T01:18:44.576Z,96801.79
2023-03-12T01:21:14.436Z,96809.41
2023-03-12T01:23:44.387Z,96810.23
2023-03-12T01:26:14.335Z,96820.05
2023-03-12T01:28:44.180Z,96820.59
2023-03-12T01:31:15.935Z,96815.95
2023-03-12T01:33:45.858Z,96830.97
2023-03-12T01:36:23.499Z,96836.97
2023-03-12T01:38:53.976Z,96833.69
2023-03-12T01:41:23.898Z,96839.70
2023-03-12T01:43:54.628Z,96841.36
2023-03-12T01:46:33.370Z,96847.63
2023-03-12T01:49:05.918Z,96853.64
2023-03-12T01:51:50.060Z,96864.00
2023-03-12T01:54:25.092Z,96873.00
2023-03-12T01:56:56.200Z,96879.81
2023-03-12T01:59:28.709Z,96885.57
2023-03-12T02:01:59.918Z,96889.11
2023-03-12T02:04:30.614Z,96905.74
2023-03-12T02:07:11.010Z,96895.64
2023-03-12T02:09:49.362Z,96876.29
2023-03-12T02:12:19.492Z,96879.31
2023-03-12T02:14:50.139Z,96894.84
2023-03-12T02:17:20.718Z,96891.04
2023-03-12T02:20:33.933Z,96904.39
2023-03-12T02:23:11.755Z,96910.95
2023-03-12T02:25:43.152Z,96912.57
2023-03-12T02:28:14.912Z,96912.05
2023-03-12T02:30:46.391Z,96918.31
2023-03-12T02:33:16.978Z,96909.84
2023-03-12T02:35:48.345Z,96910.13
2023-03-12T02:38:39.128Z,96921.31
2023-03-12T02:41:17.614Z,96931.41
2023-03-12T02:43:50.171Z,96933.58
2023-03-12T02:46:20.243Z,96947.52
2023-03-12T02:48:51.678Z,96941.77
2023-03-12T02:51:21.529Z,96940.14
2023-03-12T02:53:52.785Z,96946.41
2023-03-12T02:56:26.311Z,96944.23
2023-03-12T02:58:56.674Z,96943.69
2023-03-12T03:01:28.962Z,96942.33
2023-03-12T03:04:03.240Z,96959.80
2023-03-12T03:06:33.324Z,96961.97
2023-03-12T03:09:03.136Z,96966.06
2023-03-12T03:11:35.114Z,96970.41
2023-03-12T03:14:05.114Z,96972.06
2023-03-12T03:16:34.970Z,96973.69
2023-03-12T03:19:04.892Z,96970.16
2023-03-12T03:21:34.784Z,96975.61
2023-03-12T03:24:04.696Z,96982.69
2023-03-12T03:26:34.520Z,96991.97
2023-03-12T03:29:05.234Z,96996.06
2023-03-12T03:31:35.256Z,96979.44
2023-03-12T03:34:05.084Z,96980.52
2023-03-12T03:36:34.994Z,96986.25
2023-03-12T03:39:05.844Z,96983.79
2023-03-12T03:41:35.768Z,96994.96
2023-03-12T03:44:06.058Z,96995.80
2023-03-12T03:46:37.483Z,96999.08
2023-03-12T03:49:07.411Z,96998.53
2023-03-12T03:51:37.428Z,97004.80
2023-03-12T03:54:09.499Z,97016.25
2023-03-12T03:56:39.355Z,97028.23
2023-03-12T03:59:09.258Z,97034.53
2023-03-12T04:01:39.094Z,97051.96
2023-03-12T04:04:08.937Z,97062.32
2023-03-12T04:06:38.842Z,97076.51
2023-03-12T04:09:08.941Z,97096.15
2023-03-12T04:11:39.165Z,97121.80
2023-03-12T04:14:09.262Z,97140.29
2023-03-12T04:16:59.406Z,97149.02
2023-03-12T04:19:31.472Z,97133.21
2023-03-12T04:22:01.803Z,97105.64
2023-03-12T04:24:32.004Z,97092.30
2023-03-12T04:27:01.964Z,97089.28
2023-03-12T04:29:31.846Z,97102.36
2023-03-12T04:32:02.024Z,97125.53
2023-03-12T04:34:32.323Z,97142.73
2023-03-12T04:37:04.019Z,97172.17
2023-03-12T04:39:34.052Z,97184.70
2023-03-12T04:42:03.967Z,97196.97
2023-03-12T04:44:33.929Z,97215.80
2023-03-12T04:47:03.861Z,97203.27
2023-03-12T04:49:33.841Z,97205.44
2023-03-12T04:52:06.149Z,97193.16
2023-03-12T04:54:35.988Z,97161.80
2023-03-12T04:57:05.997Z,97130.45
2023-03-12T04:59:35.949Z,97143.53
2023-03-12T05:02:05.801Z,97180.07
2023-03-12T05:04:35.653Z,97209.21
2023-03-12T05:07:05.635Z,97154.16
2023-03-12T05:09:35.518Z,97128.52
2023-03-12T05:12:05.368Z,97127.70
2023-03-12T05:14:35.229Z,97123.33
2023-03-12T05:17:06.011Z,97123.06
2023-03-12T05:19:35.883Z,97127.15
2023-03-12T05:22:05.694Z,97129.61
2023-03-12T05:24:35.753Z,97169.14
2023-03-12T05:27:05.613Z,97178.12
2023-03-12T05:29:36.272Z,97166.41
2023-03-12T05:32:06.219Z,97115.41
2023-03-12T05:34:36.357Z,97143.22
2023-03-12T05:37:08.522Z,97144.84
2023-03-12T05:39:38.942Z,97130.95
2023-03-12T05:42:10.728Z,97039.37
2023-03-12T05:44:40.587Z,97003.93
2023-03-12T05:47:11.376Z,97070.41
2023-03-12T05:49:41.433Z,97117.84
2023-03-12T05:52:11.562Z,97134.45
2023-03-12T05:54:41.581Z,97156.55
2023-03-12T05:57:11.524Z,97171.80
2023-03-12T05:59:41.477Z,97169.62
2023-03-12T06:02:11.417Z,97174.80
2023-03-12T06:04:41.329Z,97203.67
2023-03-12T06:07:11.163Z,97232.29
2023-03-12T06:09:41.254Z,97245.36
2023-03-12T06:12:11.355Z,97251.63
2023-03-12T06:14:41.406Z,97251.61
2023-03-12T06:17:11.298Z,97285.41
2023-03-12T06:19:41.427Z,97244.25
2023-03-12T06:22:11.274Z,97175.83
2023-03-12T06:24:42.677Z,97145.33
2023-03-12T06:27:12.745Z,97189.17
2023-03-12T06:29:42.886Z,97154.84
2023-03-12T06:32:12.787Z,97194.61
2023-03-12T06:34:42.930Z,97197.34
2023-03-12T06:37:12.810Z,97116.94
2023-03-12T06:39:42.922Z,97135.75
2023-03-12T06:42:13.832Z,97129.19
2023-03-12T06:44:43.753Z,97129.47
2023-03-12T06:47:15.908Z,97107.38
2023-03-12T06:49:45.523Z,97083.66
2023-03-12T06:52:15.258Z,97083.39
2023-03-12T06:54:45.273Z,97080.66
2023-03-12T06:57:16.804Z,97085.30
2023-03-12T06:59:50.014Z,97093.45
2023-03-12T07:02:19.044Z,97105.15
2023-03-12T07:04:49.056Z,97113.06
2023-03-12T07:07:18.979Z,97120.97
2023-03-12T07:09:51.276Z,97097.52
2023-03-12T07:12:21.205Z,97102.70
2023-03-12T07:14:51.064Z,97122.83
2023-03-12T07:17:21.036Z,97132.06
2023-03-12T07:19:51.046Z,97135.33
2023-03-12T07:22:20.913Z,97150.00
2023-03-12T07:24:51.977Z,97157.91
2023-03-12T07:27:22.202Z,97167.17
2023-03-12T07:29:52.025Z,97199.56
2023-03-12T07:32:21.969Z,97215.36
2023-03-12T07:34:53.216Z,97227.32
2023-03-12T07:37:23.209Z,97225.69
2023-03-12T07:39:54.706Z,97219.95
2023-03-12T07:42:24.880Z,97216.69
2023-03-12T07:44:54.805Z,97208.50
2023-03-12T07:47:27.477Z,97207.68
2023-03-12T07:49:59.094Z,97200.31
2023-03-12T07:52:29.715Z,97179.59
2023-03-12T07:55:00.554Z,97166.80
2023-03-12T07:57:31.792Z,97148.75
2023-03-12T08:00:01.784Z,97174.38
2023-03-12T08:02:31.923Z,97188.81
2023-03-12T08:05:02.374Z,97196.95
2023-03-12T08:07:34.975Z,97198.86
2023-03-12T08:10:05.975Z,97200.50
2023-03-12T08:12:36.213Z,97199.39
2023-03-12T08:15:07.946Z,97197.22
2023-03-12T08:17:38.204Z,97196.09
2023-03-12T08:20:11.597Z,97201.27
2023-03-12T08:22:41.675Z,97213.50
2023-03-12T08:25:11.961Z,97236.89
2023-03-12T08:27:42.024Z,97248.33
2023-03-12T08:30:13.004Z,97266.56
2023-03-12T08:32:45.569Z,97293.76
2023-03-12T08:35:15.461Z,97298.62
2023-03-12T08:37:45.375Z,97297.00
2023-03-12T08:40:15.341Z,97301.33
2023-03-12T08:42:45.831Z,97300.24
2023-03-12T08:45:16.878Z,97290.41
2023-03-12T08:47:46.716Z,97285.24
2023-03-12T08:50:17.736Z,97284.67
2023-03-12T08:52:47.885Z,97293.63
2023-03-12T08:55:17.901Z,97293.90
2023-03-12T08:57:47.718Z,97281.66
2023-03-12T09:00:18.848Z,97273.46
2023-03-12T09:02:48.900Z,97277.24
2023-03-12T09:05:19.047Z,97279.42
2023-03-12T09:07:50.797Z,97273.98
2023-03-12T09:10:22.056Z,97277.48
2023-03-12T09:12:51.875Z,97276.10
2023-03-12T09:15:22.075Z,97295.39
2023-03-12T09:17:52.010Z,97319.61
2023-03-12T09:20:22.092Z,97323.41
2023-03-12T09:22:51.972Z,97307.88
2023-03-12T09:25:23.516Z,97315.47
2023-03-12T09:27:53.502Z,97320.64
2023-03-12T09:30:25.015Z,97312.95
2023-03-12T09:32:55.499Z,97311.30
2023-03-12T09:35:25.410Z,97328.70
2023-03-12T09:37:55.654Z,97343.09
2023-03-12T09:40:26.441Z,97346.36
2023-03-12T09:43:00.581Z,97358.02
2023-03-12T09:45:37.079Z,97371.34
2023-03-12T09:48:08.422Z,97376.21
2023-03-12T09:50:43.844Z,97382.73
2023-03-12T09:53:25.916Z,97385.42
2023-03-12T09:55:57.058Z,97387.84
2023-03-12T09:58:37.677Z,97381.31
2023-03-12T10:01:16.400Z,97381.55
2023-03-12T10:04:14.551Z,97363.84
2023-03-12T10:06:56.262Z,97337.72
2023-03-12T10:09:41.114Z,97324.37
2023-03-12T10:12:28.862Z,97300.16
2023-03-12T10:15:08.250Z,97288.70
2023-03-12T10:17:58.939Z,97265.80
2023-03-12T10:20:51.079Z,97278.88
2023-03-12T10:23:41.718Z,97326.44
2023-03-12T10:26:23.213Z,97384.90
2023-03-12T10:29:01.904Z,97400.64
2023-03-12T10:31:37.599Z,97399.23
2023-03-12T10:34:12.869Z,97386.42
2023-03-12T10:36:42.729Z,97385.88
2023-03-12T10:39:20.559Z,97389.95
2023-03-12T10:41:50.641Z,97387.20
2023-03-12T10:44:25.562Z,97395.86
2023-03-12T10:47:13.411Z,97393.41
2023-03-12T10:49:43.853Z,97411.63
2023-03-12T10:52:23.586Z,97423.82
2023-03-12T10:54:54.119Z,97430.85
2023-03-12T10:57:24.699Z,97437.06
2023-03-12T10:59:54.670Z,97451.20
2023-03-12T11:02:43.846Z,97459.62
2023-03-12T11:05:28.436Z,97460.12
2023-03-12T11:08:01.117Z,97449.52
2023-03-12T11:10:48.233Z,97452.73
2023-03-12T11:13:31.948Z,97456.81
2023-03-12T11:16:17.228Z,97460.03
2023-03-12T11:19:04.402Z,97451.30
2023-03-12T11:21:37.214Z,97447.76
2023-03-12T11:24:09.868Z,97452.61
2023-03-12T11:26:42.059Z,97446.36
2023-03-12T11:29:23.704Z,97441.70
2023-03-12T11:32:02.373Z,97449.27
2023-03-12T11:34:35.343Z,97459.09
2023-03-12T11:37:30.570Z,97469.42
2023-03-12T11:40:12.858Z,97479.20
2023-03-12T11:43:04.396Z,97470.78
2023-03-12T11:45:42.606Z,97470.82
2023-03-12T11:48:16.588Z,97470.82
2023-03-12T11:50:54.381Z,97469.16
2023-03-12T11:53:29.648Z,97475.95
2023-03-12T11:56:03.857Z,97484.10
2023-03-12T11:58:52.778Z,97492.80
2023-03-12T12:01:37.381Z,97488.17
2023-03-12T12:04:17.079Z,97486.81
2023-03-12T12:07:07.697Z,97478.66
2023-03-12T12:10:00.009Z,97483.87
2023-03-12T12:13:02.849Z,97479.75
2023-03-12T12:15:44.683Z,97475.67
2023-03-12T12:18:17.417Z,97480.24
2023-03-12T12:21:02.095Z,97485.95
2023-03-12T12:23:41.357Z,97492.75
2023-03-12T12:26:26.048Z,97498.23
2023-03-12T12:29:27.598Z,97508.28
2023-03-12T12:32:00.270Z,97513.48
2023-03-12T12:34:49.595Z,97504.03
2023-03-12T12:37:52.359Z,97494.33
2023-03-12T12:40:39.828Z,97491.70
2023-03-12T12:43:30.280Z,97475.70
2023-03-12T12:46:06.582Z,97479.33
2023-03-12T12:48:41.982Z,97461.45
2023-03-12T12:51:12.056Z,97460.69
2023-03-12T12:53:59.690Z,97455.87
2023-03-12T12:56:55.432Z,97451.84
2023-03-12T12:59:37.148Z,97464.69
2023-03-12T13:02:08.979Z,97484.59
2023-03-12T13:04:42.299Z,97495.20
2023-03-12T13:07:18.153Z,97488.94
2023-03-12T13:09:51.355Z,97505.11
2023-03-12T13:12:35.553Z,97508.95
2023-03-12T13:15:04.996Z,97510.91
2023-03-12T13:17:56.531Z,97529.16
2023-03-12T13:20:36.994Z,97539.55
2023-03-12T13:23:27.899Z,97547.75
2023-03-12T13:26:15.517Z,97555.64
2023-03-12T13:29:11.937Z,97571.22
2023-03-12T13:31:35.198Z,97596.56
2023-03-12T13:34:27.884Z,97616.48
2023-03-12T13:37:01.920Z,97620.09
2023-03-12T13:39:34.723Z,97616.02
2023-03-12T13:42:22.742Z,97615.24
2023-03-12T13:44:52.925Z,97627.53
2023-03-12T13:47:46.610Z,97618.31
2023-03-12T13:50:17.384Z,97617.23
2023-03-12T13:53:08.145Z,97622.98
2023-03-12T13:55:38.544Z,97633.64
2023-03-12T13:58:13.554Z,97650.83
2023-03-12T14:00:47.899Z,97654.64
2023-03-12T14:03:28.894Z,97663.66
2023-03-12T14:06:16.727Z,97665.30
2023-03-12T14:09:12.127Z,97670.75
2023-03-12T14:12:09.178Z,97687.08
2023-03-12T14:14:58.863Z,97700.14
2023-03-12T14:17:29.866Z,97709.44
2023-03-12T14:20:08.237Z,97717.84
2023-03-12T14:22:38.515Z,97718.38
2023-03-12T14:25:11.346Z,97714.58
2023-03-12T14:27:41.345Z,97716.48
2023-03-12T14:30:13.518Z,97722.70
2023-03-12T14:32:43.658Z,97722.47
2023-03-12T14:35:22.836Z,97727.09
2023-03-12T14:37:59.245Z,97731.77
2023-03-12T14:40:45.309Z,97736.36
2023-03-12T14:43:32.254Z,97732.53
2023-03-12T14:46:04.326Z,97729.55
2023-03-12T14:48:38.417Z,97736.36
2023-03-12T14:51:09.084Z,97737.16
2023-03-12T14:53:41.634Z,97738.26
2023-03-12T14:56:14.342Z,97739.89
2023-03-12T14:58:49.643Z,97745.33
2023-03-12T15:01:28.361Z,97751.55
2023-03-12T15:04:04.602Z,97761.89
2023-03-12T15:06:42.733Z,97767.62
2023-03-12T15:09:15.464Z,97783.44
2023-03-12T15:11:48.184Z,97791.84
2023-03-12T15:14:20.376Z,97788.30
2023-03-12T15:16:50.704Z,97782.80
2023-03-12T15:19:35.386Z,97778.72
2023-03-12T15:22:26.229Z,97776.82
2023-03-12T15:24:56.259Z,97781.45
2023-03-12T15:27:31.930Z,97787.97
2023-03-12T15:30:02.739Z,97790.97
2023-03-12T15:32:33.954Z,97793.47
2023-03-12T15:35:05.736Z,97795.59
2023-03-12T15:37:56.963Z,97804.58
2023-03-12T15:40:47.760Z,97803.81
2023-03-12T15:43:22.303Z,97809.58
2023-03-12T15:46:00.866Z,97809.30
2023-03-12T15:48:37.366Z,97822.38
2023-03-12T15:51:40.319Z,97831.91
2023-03-12T15:54:29.759Z,97834.91
2023-03-12T15:57:26.008Z,97841.75
2023-03-12T16:00:19.806Z,97836.31
2023-03-12T16:03:01.571Z,97836.36
2023-03-12T16:05:34.144Z,97839.36
2023-03-12T16:08:18.393Z,97842.94
2023-03-12T16:10:48.720Z,97842.98
2023-03-12T16:13:20.813Z,97858.00
2023-03-12T16:15:50.856Z,97856.92
2023-03-12T16:18:21.719Z,97865.37
2023-03-12T16:20:52.082Z,97871.67
2023-03-12T16:23:23.683Z,97877.11
2023-03-12T16:25:57.183Z,97874.90
2023-03-12T16:28:27.490Z,97875.75
2023-03-12T16:30:57.350Z,97888.28
2023-03-12T16:33:27.540Z,97893.19
2023-03-12T16:35:57.921Z,97896.73
2023-03-12T16:38:28.027Z,97903.85
2023-03-12T16:40:58.070Z,97906.58
2023-03-12T16:43:29.602Z,97912.84
2023-03-12T16:46:00.021Z,97911.48
2023-03-12T16:48:30.861Z,97908.45
2023-03-12T16:51:02.633Z,97909.30
2023-03-12T16:53:32.800Z,97904.63
2023-03-12T16:56:03.000Z,97909.53
2023-03-12T16:58:34.058Z,97919.87
2023-03-12T17:01:03.983Z,97916.33
2023-03-12T17:03:40.484Z,97930.49
2023-03-12T17:06:11.782Z,97941.39
2023-03-12T17:08:42.374Z,97954.46
2023-03-12T17:11:23.701Z,97964.53
2023-03-12T17:13:58.952Z,97973.78
2023-03-12T17:16:29.893Z,97988.76
2023-03-12T17:19:00.816Z,97991.43
2023-03-12T17:21:31.962Z,97990.06
2023-03-12T17:24:03.251Z,97992.80
2023-03-12T17:26:33.932Z,98001.73
2023-03-12T17:29:06.656Z,97998.69
2023-03-12T17:31:38.143Z,97996.28
2023-03-12T17:34:08.064Z,98001.73
2023-03-12T17:36:41.820Z,98002.27
2023-03-12T17:39:12.013Z,98003.63
2023-03-12T17:41:43.851Z,98015.57
2023-03-12T17:44:15.757Z,98022.91
2023-03-12T17:46:59.261Z,98019.37
2023-03-12T17:49:25.324Z,98017.19
2023-03-12T17:51:55.545Z,98008.42
2023-03-12T17:54:27.170Z,98016.59
2023-03-12T17:56:57.355Z,98020.14
2023-03-12T17:59:27.667Z,98014.64
2023-03-12T18:01:59.944Z,98017.36
2023-03-12T18:04:31.088Z,98006.78
2023-03-12T18:07:02.215Z,97996.41
2023-03-12T18:09:33.043Z,97983.05
2023-03-12T18:12:04.332Z,97977.39
2023-03-12T18:14:34.546Z,97982.30
2023-03-12T18:17:04.608Z,97976.86
2023-03-12T18:19:37.164Z,97984.80
2023-03-12T18:22:07.987Z,97979.35
2023-03-12T18:24:38.130Z,97984.03
2023-03-12T18:27:08.164Z,97982.95
2023-03-12T18:29:40.982Z,97983.27
2023-03-12T18:32:10.903Z,97979.73
2023-03-12T18:34:42.402Z,97988.22
2023-03-12T18:37:12.388Z,97997.21
2023-03-12T18:39:42.194Z,98000.52
2023-03-12T18:42:12.044Z,98001.34
2023-03-12T18:44:42.276Z,97999.98
2023-03-12T18:47:12.428Z,98006.80
2023-03-12T18:49:42.330Z,98006.53
2023-03-12T18:52:12.311Z,98001.40
2023-03-12T18:54:42.495Z,98000.03
2023-03-12T18:57:13.150Z,97990.50
2023-03-12T18:59:44.563Z,97989.97
2023-03-12T19:02:14.471Z,97984.52
2023-03-12T19:04:44.414Z,97983.70
2023-03-12T19:07:14.723Z,97977.94
2023-03-12T19:09:45.158Z,97971.98
2023-03-12T19:12:15.259Z,97971.62
2023-03-12T19:14:45.484Z,97976.84
2023-03-12T19:17:15.574Z,97972.44
2023-03-12T19:19:45.750Z,97973.80
2023-03-12T19:22:15.970Z,97973.80
2023-03-12T19:24:49.562Z,97976.25
2023-03-12T19:27:19.591Z,97971.00
2023-03-12T19:29:49.654Z,97981.69
2023-03-12T19:32:20.748Z,97981.41
2023-03-12T19:34:52.392Z,97974.60
2023-03-12T19:37:23.383Z,97962.89
2023-03-12T19:39:53.613Z,97960.39
2023-03-12T19:42:23.612Z,97953.36
2023-03-12T19:44:53.529Z,97954.72
2023-03-12T19:47:23.339Z,97953.59
2023-03-12T19:49:53.540Z,97953.59
2023-03-12T19:52:23.556Z,97960.94
2023-03-12T19:55:03.907Z,97962.53
2023-03-12T19:57:25.390Z,97960.88
2023-03-12T19:59:55.508Z,97966.92
2023-03-12T20:02:25.478Z,97962.53
2023-03-12T20:04:56.048Z,97955.05
2023-03-12T20:07:26.473Z,97949.45
2023-03-12T20:09:56.502Z,97958.16
2023-03-12T20:12:26.512Z,97963.30
2023-03-12T20:14:56.637Z,97975.04
2023-03-12T20:17:28.364Z,97970.41
2023-03-12T20:19:58.899Z,97974.50
2023-03-12T20:22:29.252Z,97969.82
2023-03-12T20:25:00.351Z,97973.36
2023-03-12T20:27:31.678Z,97968.41
2023-03-12T20:30:04.170Z,97972.27
2023-03-12T20:32:34.667Z,97968.13
2023-03-12T20:35:07.291Z,97967.87
2023-03-12T20:37:37.460Z,97968.41
2023-03-12T20:40:08.529Z,97965.14
2023-03-12T20:42:38.883Z,97965.45
2023-03-12T20:45:09.418Z,97967.64
2023-03-12T20:47:40.656Z,97966.02
2023-03-12T20:50:11.775Z,97974.50
2023-03-12T20:52:41.688Z,97973.41
2023-03-12T20:55:12.879Z,97979.45
2023-03-12T20:57:42.727Z,97966.97
2023-03-12T21:00:13.486Z,97970.52
2023-03-12T21:02:43.467Z,97985.23
2023-03-12T21:05:14.801Z,98002.39
2023-03-12T21:07:44.899Z,98012.78
2023-03-12T21:10:15.038Z,98009.52
2023-03-12T21:12:45.230Z,98015.24
2023-03-12T21:15:15.449Z,98022.37
2023-03-12T21:17:45.660Z,98023.41
2023-03-12T21:20:17.212Z,98027.22
2023-03-12T21:22:48.155Z,98027.76
2023-03-12T21:25:18.447Z,98031.58
2023-03-12T21:27:51.531Z,98028.58
2023-03-12T21:30:20.604Z,98021.52
2023-03-12T21:32:50.895Z,98026.14
2023-03-12T21:35:21.033Z,98026.45
2023-03-12T21:37:51.272Z,98028.32
2023-03-12T21:40:21.554Z,98030.53
2023-03-12T21:42:51.744Z,98032.95
2023-03-12T21:45:21.957Z,98034.03
2023-03-12T21:47:51.950Z,98037.57
2023-03-12T21:50:21.947Z,98041.38
2023-03-12T21:52:56.925Z,98041.06
2023-03-12T21:55:27.004Z,98048.41
2023-03-12T21:57:57.099Z,98054.68
2023-03-12T22:00:29.783Z,98068.83
2023-03-12T22:03:00.481Z,98069.66
2023-03-12T22:05:31.485Z,98068.83
2023-03-12T22:08:03.838Z,98055.75
2023-03-12T22:10:34.936Z,98048.13
2023-03-12T22:13:05.128Z,98049.49
2023-03-12T22:15:35.210Z,98052.21
2023-03-12T22:18:05.229Z,98045.09
2023-03-12T22:20:35.375Z,98050.54
2023-03-12T22:23:05.228Z,98054.62
2023-03-12T22:25:36.524Z,98056.53
2023-03-12T22:28:06.524Z,98052.98
2023-03-12T22:30:36.361Z,98045.89
2023-03-12T22:33:08.695Z,98038.23
2023-03-12T22:35:39.909Z,98043.67
2023-03-12T22:38:09.841Z,98027.87
2023-03-12T22:40:40.039Z,98022.43
2023-03-12T22:43:09.893Z,98027.59
2023-03-12T22:45:39.885Z,98027.28
2023-03-12T22:48:09.819Z,98023.52
2023-03-12T22:50:39.692Z,98016.70
2023-03-12T22:53:09.533Z,98012.91
2023-03-12T22:55:39.433Z,98011.85
2023-03-12T22:58:09.352Z,98018.66
2023-03-12T23:00:39.156Z,98006.91
2023-03-12T23:03:09.279Z,98006.97
2023-03-12T23:05:39.332Z,97995.56
2023-03-12T23:08:09.231Z,97982.23
2023-03-12T23:10:39.104Z,97985.78
2023-03-12T23:13:10.549Z,97988.27
2023-03-12T23:15:41.840Z,97999.73
2023-03-12T23:18:12.284Z,98008.20
2023-03-12T23:20:42.295Z,98010.39
2023-03-12T23:23:12.124Z,98014.48
2023-03-12T23:25:42.266Z,98021.05
2023-03-12T23:28:12.127Z,98020.20
2023-03-12T23:30:42.179Z,98022.42
2023-03-12T23:33:12.299Z,98019.16
2023-03-12T23:35:43.958Z,98019.16
2023-03-12T23:38:14.006Z,98019.16
2023-03-12T23:40:43.898Z,98028.69
2023-03-12T23:43:16.535Z,98029.79
2023-03-12T23:45:46.456Z,98034.19
2023-03-12T23:48:18.852Z,98027.06
2023-03-12T23:50:48.704Z,98034.70
2023-03-12T23:53:19.170Z,98038.78
2023-03-12T23:55:59.082Z,98040.14
2023-03-12T23:58:28.916Z,98045.59
